createdAt,value
2023-03-03T00:00:56.006Z,10.33
2023-03-03T00:03:25.594Z,10.00
2023-03-03T00:05:54.050Z,10.70
2023-03-03T00:08:23.129Z,10.53
2023-03-03T00:10:51.294Z,9.87
2023-03-03T00:13:21.910Z,11.73
2023-03-03T00:15:51.617Z,10.87
2023-03-03T00:18:25.435Z,10.57
2023-03-03T00:20:56.788Z,11.20
2023-03-03T00:23:31.387Z,10.77
2023-03-03T00:26:00.402Z,10.30
2023-03-03T00:28:31.378Z,10.83
2023-03-03T00:31:03.255Z,10.23
2023-03-03T00:33:34.484Z,10.37
2023-03-03T00:36:23.390Z,10.70
2023-03-03T00:38:51.185Z,9.77
2023-03-03T00:41:23.487Z,10.83
2023-03-03T00:43:51.959Z,9.50
2023-03-03T00:46:22.709Z,9.93
2023-03-03T00:48:51.514Z,11.10
2023-03-03T00:51:28.630Z,11.70
2023-03-03T00:53:57.011Z,11.40
2023-03-03T00:56:25.334Z,9.57
2023-03-03T00:58:53.091Z,10.07
2023-03-03T01:01:22.599Z,10.30
2023-03-03T01:03:50.369Z,9.57
2023-03-03T01:06:18.158Z,8.63
2023-03-03T01:08:45.966Z,10.73
2023-03-03T01:11:16.866Z,10.17
2023-03-03T01:13:47.259Z,10.20
2023-03-03T01:16:15.209Z,9.73
2023-03-03T01:18:44.430Z,10.43
2023-03-03T01:21:12.932Z,12.07
2023-03-03T01:23:40.988Z,11.73
2023-03-03T01:26:08.981Z,10.97
2023-03-03T01:28:36.775Z,11.57
2023-03-03T01:31:06.407Z,11.40
2023-03-03T01:33:35.656Z,11.30
2023-03-03T01:36:05.468Z,11.23
2023-03-03T01:38:33.255Z,11.07
2023-03-03T01:41:01.522Z,11.90
2023-03-03T01:43:30.972Z,11.77
2023-03-03T01:46:27.883Z,11.93
2023-03-03T01:49:02.853Z,11.83
2023-03-03T01:51:34.966Z,11.10
2023-03-03T01:54:04.695Z,11.00
2023-03-03T01:56:33.759Z,11.20
2023-03-03T01:59:06.325Z,10.80
2023-03-03T02:01:35.130Z,10.27
2023-03-03T02:04:03.373Z,9.17
2023-03-03T02:06:37.384Z,9.93
2023-03-03T02:09:08.791Z,11.67
2023-03-03T02:11:39.162Z,11.07
2023-03-03T02:14:06.942Z,10.70
2023-03-03T02:16:34.878Z,9.57
2023-03-03T02:19:02.848Z,11.47
2023-03-03T02:21:32.626Z,10.40
2023-03-03T02:24:08.880Z,10.30
2023-03-03T02:26:42.324Z,10.70
2023-03-03T02:29:11.146Z,11.37
2023-03-03T02:31:39.440Z,10.93
2023-03-03T02:34:07.727Z,10.03
2023-03-03T02:36:37.556Z,10.77
2023-03-03T02:39:09.782Z,10.27
2023-03-03T02:41:43.863Z,10.93
2023-03-03T02:44:13.999Z,10.33
2023-03-03T02:46:43.711Z,10.70
2023-03-03T02:49:14.606Z,10.43
2023-03-03T02:51:42.873Z,10.47
2023-03-03T02:54:12.893Z,11.33
2023-03-03T02:56:42.496Z,11.37
2023-03-03T02:59:10.793Z,11.37
2023-03-03T03:01:38.906Z,10.60
2023-03-03T03:04:09.568Z,10.73
2023-03-03T03:06:37.634Z,10.10
2023-03-03T03:09:06.865Z,9.70
2023-03-03T03:11:35.100Z,10.63
2023-03-03T03:14:04.854Z,9.20
2023-03-03T03:16:33.056Z,11.73
2023-03-03T03:19:01.594Z,11.40
2023-03-03T03:21:29.462Z,11.03
2023-03-03T03:23:57.413Z,10.37
2023-03-03T03:26:25.375Z,10.83
2023-03-03T03:28:53.767Z,10.83
2023-03-03T03:31:23.888Z,9.63
2023-03-03T03:33:52.621Z,11.17
2023-03-03T03:36:20.677Z,9.93
2023-03-03T03:38:48.551Z,11.40
2023-03-03T03:41:16.326Z,9.87
2023-03-03T03:43:44.145Z,10.10
2023-03-03T03:46:12.063Z,10.03
2023-03-03T03:48:41.214Z,8.87
2023-03-03T03:51:09.031Z,9.90
2023-03-03T03:53:36.847Z,9.67
2023-03-03T03:56:04.818Z,10.47
2023-03-03T03:58:32.609Z,9.43
2023-03-03T04:01:04.229Z,10.03
2023-03-03T04:03:32.083Z,9.47
2023-03-03T04:06:01.330Z,9.00
2023-03-03T04:08:29.108Z,10.67
2023-03-03T04:10:56.880Z,10.10
2023-03-03T04:13:24.649Z,9.70
2023-03-03T04:15:52.514Z,10.20
2023-03-03T04:18:20.327Z,9.47
2023-03-03T04:20:48.174Z,9.83
2023-03-03T04:23:17.258Z,9.37
2023-03-03T04:25:46.674Z,10.57
2023-03-03T04:28:14.510Z,9.20
2023-03-03T04:30:42.343Z,9.33
2023-03-03T04:33:10.388Z,8.77
2023-03-03T04:35:38.262Z,9.23
2023-03-03T04:38:06.034Z,10.13
2023-03-03T04:40:35.156Z,10.37
2023-03-03T04:43:03.837Z,11.07
2023-03-03T04:45:31.605Z,11.87
2023-03-03T04:47:59.394Z,11.10
2023-03-03T04:50:27.305Z,11.57
2023-03-03T04:52:55.136Z,12.33
2023-03-03T04:55:23.136Z,11.67
2023-03-03T04:57:52.254Z,14.43
2023-03-03T05:00:20.514Z,15.30
2023-03-03T05:02:49.404Z,15.50
2023-03-03T05:05:17.332Z,16.10
2023-03-03T05:07:45.112Z,12.67
2023-03-03T05:10:12.962Z,13.77
2023-03-03T05:12:40.812Z,12.50
2023-03-03T05:15:10.765Z,11.67
2023-03-03T05:17:38.549Z,11.80
2023-03-03T05:20:08.389Z,11.27
2023-03-03T05:22:36.182Z,11.03
2023-03-03T05:25:04.173Z,11.37
2023-03-03T05:27:31.946Z,10.93
2023-03-03T05:29:59.721Z,11.53
2023-03-03T05:32:28.866Z,11.93
2023-03-03T05:34:56.800Z,12.53
2023-03-03T05:37:25.160Z,12.17
2023-03-03T05:39:52.932Z,13.00
2023-03-03T05:42:21.895Z,11.63
2023-03-03T05:44:49.740Z,12.77
2023-03-03T05:47:17.516Z,13.23
2023-03-03T05:49:46.624Z,12.80
2023-03-03T05:52:14.363Z,12.27
2023-03-03T05:54:42.208Z,13.20
2023-03-03T05:57:10.079Z,13.77
2023-03-03T05:59:38.081Z,11.63
2023-03-03T06:02:05.942Z,13.37
2023-03-03T06:04:33.723Z,13.63
2023-03-03T06:07:02.961Z,12.73
2023-03-03T06:09:30.749Z,12.93
2023-03-03T06:11:58.533Z,11.83
2023-03-03T06:14:27.248Z,11.53
2023-03-03T06:16:55.180Z,11.17
2023-03-03T06:19:22.941Z,10.77
2023-03-03T06:21:50.875Z,12.77
2023-03-03T06:24:20.009Z,11.93
2023-03-03T06:26:48.170Z,13.83
2023-03-03T06:29:16.014Z,11.37
2023-03-03T06:31:44.680Z,14.10
2023-03-03T06:34:12.557Z,13.17
2023-03-03T06:36:40.317Z,12.70
2023-03-03T06:39:08.165Z,25.37
2023-03-03T06:41:37.414Z,30.90
2023-03-03T06:44:05.383Z,27.40
2023-03-03T06:46:33.150Z,24.23
2023-03-03T06:49:00.905Z,19.30
2023-03-03T06:51:33.567Z,16.73
2023-03-03T06:54:07.448Z,14.33
2023-03-03T06:56:39.176Z,14.23
2023-03-03T06:59:13.267Z,15.13
2023-03-03T07:01:41.776Z,19.97
2023-03-03T07:04:17.464Z,18.13
2023-03-03T07:06:45.256Z,15.50
2023-03-03T07:09:20.580Z,15.90
2023-03-03T07:11:49.686Z,15.13
2023-03-03T07:14:19.966Z,14.07
2023-03-03T07:16:48.150Z,14.97
2023-03-03T07:19:21.285Z,12.33
2023-03-03T07:21:49.293Z,13.43
2023-03-03T07:24:27.236Z,12.47
2023-03-03T07:27:01.416Z,11.70
2023-03-03T07:29:31.374Z,13.07
2023-03-03T07:32:00.280Z,12.10
2023-03-03T07:34:36.690Z,12.23
2023-03-03T07:37:16.478Z,13.10
2023-03-03T07:39:46.665Z,14.63
2023-03-03T07:42:23.300Z,13.20
2023-03-03T07:44:53.136Z,14.53
2023-03-03T07:47:23.790Z,13.83
2023-03-03T07:49:53.008Z,14.00
2023-03-03T07:52:26.786Z,14.50
2023-03-03T07:54:56.089Z,13.70
2023-03-03T07:57:27.857Z,12.67
2023-03-03T07:59:59.556Z,14.37
2023-03-03T08:02:40.452Z,14.17
2023-03-03T08:05:29.353Z,13.57
2023-03-03T08:08:11.431Z,12.70
2023-03-03T08:10:43.979Z,13.87
2023-03-03T08:13:19.783Z,14.53
2023-03-03T08:15:50.469Z,13.27
2023-03-03T08:18:24.814Z,14.20
2023-03-03T08:20:55.641Z,13.60
2023-03-03T08:23:23.818Z,14.30
2023-03-03T08:25:53.038Z,14.53
2023-03-03T08:28:23.131Z,13.07
2023-03-03T08:30:54.418Z,13.93
2023-03-03T08:33:28.236Z,13.13
2023-03-03T08:35:56.013Z,13.77
2023-03-03T08:38:24.085Z,13.77
2023-03-03T08:40:52.110Z,14.23
2023-03-03T08:43:21.597Z,13.50
2023-03-03T08:45:52.486Z,12.77
2023-03-03T08:48:28.134Z,11.73
2023-03-03T08:50:56.011Z,11.10
2023-03-03T08:53:24.488Z,12.30
2023-03-03T08:55:52.511Z,11.10
2023-03-03T08:58:27.995Z,10.13
2023-03-03T09:01:04.844Z,10.50
2023-03-03T09:03:32.714Z,9.27
2023-03-03T09:06:00.503Z,8.93
2023-03-03T09:08:28.284Z,10.43
2023-03-03T09:10:56.018Z,9.47
2023-03-03T09:13:23.840Z,8.53
2023-03-03T09:15:51.876Z,8.47
2023-03-03T09:18:22.884Z,8.47
2023-03-03T09:20:51.640Z,9.20
2023-03-03T09:23:34.018Z,10.70
2023-03-03T09:26:34.871Z,8.17
2023-03-03T09:29:19.544Z,8.97
2023-03-03T09:31:50.624Z,8.77
2023-03-03T09:34:25.089Z,8.97
2023-03-03T09:36:54.418Z,9.93
2023-03-03T09:39:23.908Z,7.80
2023-03-03T09:42:16.983Z,9.97
2023-03-03T09:45:11.800Z,9.13
2023-03-03T09:47:55.862Z,8.67
2023-03-03T09:50:35.463Z,9.70
2023-03-03T09:53:23.176Z,8.77
2023-03-03T09:55:57.547Z,8.97
2023-03-03T09:58:59.527Z,9.73
2023-03-03T10:01:43.719Z,8.60
2023-03-03T10:04:40.048Z,8.97
2023-03-03T10:07:23.895Z,10.10
2023-03-03T10:10:06.771Z,10.37
2023-03-03T10:12:40.917Z,9.60
2023-03-03T10:15:19.315Z,9.23
2023-03-03T10:17:52.132Z,8.87
2023-03-03T10:20:55.150Z,9.13
2023-03-03T10:23:38.566Z,8.33
2023-03-03T10:26:18.084Z,10.40
2023-03-03T10:29:22.176Z,8.70
2023-03-03T10:32:00.303Z,9.40
2023-03-03T10:34:49.331Z,8.57
2023-03-03T10:37:22.994Z,9.07
2023-03-03T10:40:13.118Z,8.20
2023-03-03T10:42:51.324Z,9.80
2023-03-03T10:45:36.004Z,9.00
2023-03-03T10:48:19.227Z,9.05
2023-03-03T10:50:54.583Z,8.25
2023-03-03T10:53:35.009Z,9.82
2023-03-03T10:56:18.810Z,7.88
2023-03-03T10:59:01.072Z,7.68
2023-03-03T11:01:40.694Z,8.23
2023-03-03T11:04:26.897Z,8.50
2023-03-03T11:07:05.856Z,9.38
2023-03-03T11:09:45.236Z,8.70
2023-03-03T11:12:26.796Z,8.73
2023-03-03T11:15:22.663Z,9.43
2023-03-03T11:18:01.110Z,9.17
2023-03-03T11:20:37.116Z,9.37
2023-03-03T11:23:22.922Z,7.77
2023-03-03T11:26:02.120Z,8.30
2023-03-03T11:28:54.055Z,9.10
2023-03-03T11:31:30.666Z,8.47
2023-03-03T11:34:06.560Z,9.40
2023-03-03T11:36:38.506Z,10.20
2023-03-03T11:39:10.359Z,9.10
2023-03-03T11:41:42.231Z,8.67
2023-03-03T11:44:21.887Z,8.97
2023-03-03T11:46:53.639Z,9.17
2023-03-03T11:49:27.549Z,10.37
2023-03-03T11:52:06.173Z,9.13
2023-03-03T11:54:39.914Z,8.07
2023-03-03T11:57:18.303Z,9.30
2023-03-03T11:59:56.444Z,8.10
2023-03-03T12:02:43.847Z,8.10
2023-03-03T12:05:20.813Z,9.13
2023-03-03T12:08:00.603Z,8.03
2023-03-03T12:10:32.967Z,8.67
2023-03-03T12:13:06.376Z,9.47
2023-03-03T12:15:42.868Z,8.33
2023-03-03T12:18:28.763Z,8.07
2023-03-03T12:21:08.513Z,8.77
2023-03-03T12:23:57.743Z,8.30
2023-03-03T12:26:30.272Z,9.67
2023-03-03T12:29:03.694Z,8.10
2023-03-03T12:31:45.307Z,7.63
2023-03-03T12:34:19.491Z,8.67
2023-03-03T12:37:00.307Z,9.40
2023-03-03T12:39:41.788Z,7.80
2023-03-03T12:42:18.500Z,7.07
2023-03-03T12:44:50.242Z,7.30
2023-03-03T12:47:25.940Z,9.03
2023-03-03T12:50:08.136Z,8.57
2023-03-03T12:52:46.859Z,9.03
2023-03-03T12:55:24.336Z,7.80
2023-03-03T12:58:03.030Z,8.50
2023-03-03T13:00:44.507Z,6.67
2023-03-03T13:03:28.310Z,7.57
2023-03-03T13:06:07.566Z,7.40
2023-03-03T13:08:50.591Z,7.47
2023-03-03T13:11:33.449Z,7.57
2023-03-03T13:14:12.124Z,7.77
2023-03-03T13:16:45.827Z,7.37
2023-03-03T13:19:19.067Z,8.10
2023-03-03T13:21:51.842Z,8.30
2023-03-03T13:24:27.536Z,7.00
2023-03-03T13:26:58.725Z,7.27
2023-03-03T13:29:31.181Z,7.27
2023-03-03T13:32:04.640Z,6.80
2023-03-03T13:34:42.914Z,6.87
2023-03-03T13:37:21.338Z,7.23
2023-03-03T13:39:57.587Z,6.87
2023-03-03T13:42:33.016Z,7.27
2023-03-03T13:45:02.788Z,7.17
2023-03-03T13:47:41.918Z,6.77
2023-03-03T13:50:23.383Z,6.60
2023-03-03T13:53:07.300Z,6.37
2023-03-03T13:55:41.063Z,7.00
2023-03-03T13:58:19.855Z,6.77
2023-03-03T14:00:58.375Z,6.37
2023-03-03T14:03:44.894Z,7.70
2023-03-03T14:06:19.903Z,8.03
2023-03-03T14:09:30.370Z,7.67
2023-03-03T14:12:04.845Z,7.60
2023-03-03T14:14:46.103Z,8.30
2023-03-03T14:17:22.730Z,8.20
2023-03-03T14:20:03.259Z,6.93
2023-03-03T14:22:44.540Z,7.90
2023-03-03T14:25:14.154Z,7.80
2023-03-03T14:27:59.762Z,7.57
2023-03-03T14:30:38.392Z,8.60
2023-03-03T14:33:21.595Z,7.87
2023-03-03T14:36:03.315Z,7.47
2023-03-03T14:38:51.537Z,8.27
2023-03-03T14:41:21.709Z,7.33
2023-03-03T14:44:00.790Z,8.30
2023-03-03T14:46:34.194Z,6.87
2023-03-03T14:49:04.167Z,8.67
2023-03-03T14:51:40.578Z,7.43
2023-03-03T14:54:20.426Z,6.73
2023-03-03T14:57:01.526Z,6.40
2023-03-03T14:59:29.881Z,6.90
2023-03-03T15:02:32.443Z,6.30
2023-03-03T15:05:21.036Z,7.20
2023-03-03T15:07:54.518Z,8.40
2023-03-03T15:10:35.786Z,7.83
2023-03-03T15:13:29.602Z,7.03
2023-03-03T15:16:10.010Z,7.43
2023-03-03T15:18:56.570Z,7.30
2023-03-03T15:21:27.695Z,5.83
2023-03-03T15:24:03.748Z,7.33
2023-03-03T15:26:42.766Z,6.50
2023-03-03T15:29:18.202Z,6.63
2023-03-03T15:31:54.702Z,6.33
2023-03-03T15:34:28.787Z,6.03
2023-03-03T15:37:03.463Z,6.73
2023-03-03T15:39:42.301Z,6.33
2023-03-03T15:42:16.157Z,6.30
2023-03-03T15:44:55.820Z,6.90
2023-03-03T15:47:44.573Z,5.90
2023-03-03T15:50:21.950Z,5.63
2023-03-03T15:53:02.948Z,6.00
2023-03-03T15:55:53.549Z,5.27
2023-03-03T15:58:53.067Z,6.40
2023-03-03T16:01:27.551Z,5.90
2023-03-03T16:03:59.688Z,5.60
2023-03-03T16:06:41.877Z,6.03
2023-03-03T16:09:20.319Z,6.80
2023-03-03T16:11:52.818Z,7.80
2023-03-03T16:14:44.623Z,8.73
2023-03-03T16:17:24.913Z,9.23
2023-03-03T16:20:03.342Z,9.53
2023-03-03T16:22:46.240Z,8.53
2023-03-03T16:25:41.373Z,7.13
2023-03-03T16:28:16.130Z,6.40
2023-03-03T16:30:53.315Z,6.20
2023-03-03T16:33:28.719Z,5.30
2023-03-03T16:36:04.439Z,5.10
2023-03-03T16:38:38.181Z,4.50
2023-03-03T16:41:10.826Z,5.27
2023-03-03T16:43:50.163Z,5.17
2023-03-03T16:46:28.457Z,5.60
2023-03-03T16:49:06.025Z,5.87
2023-03-03T16:51:42.598Z,5.77
2023-03-03T16:54:16.166Z,5.43
2023-03-03T16:56:49.759Z,5.67
2023-03-03T16:59:46.762Z,5.67
2023-03-03T17:02:33.277Z,7.67
2023-03-03T17:05:06.508Z,6.77
2023-03-03T17:07:44.672Z,5.80
2023-03-03T17:10:26.231Z,6.27
2023-03-03T17:13:08.640Z,5.10
2023-03-03T17:15:45.660Z,5.70
2023-03-03T17:18:21.675Z,6.13
2023-03-03T17:20:51.547Z,7.53
2023-03-03T17:23:48.443Z,9.03
2023-03-03T17:26:31.592Z,11.07
2023-03-03T17:29:15.795Z,7.57
2023-03-03T17:31:53.304Z,6.43
2023-03-03T17:34:35.684Z,5.90
2023-03-03T17:37:13.939Z,5.97
2023-03-03T17:40:04.584Z,5.57
2023-03-03T17:42:44.403Z,5.70
2023-03-03T17:45:13.794Z,4.63
2023-03-03T17:48:06.022Z,5.67
2023-03-03T17:50:52.899Z,4.90
2023-03-03T17:53:42.341Z,4.63
2023-03-03T17:56:19.882Z,4.83
2023-03-03T17:59:18.535Z,5.20
2023-03-03T18:02:01.858Z,6.03
2023-03-03T18:04:42.500Z,9.03
2023-03-03T18:07:47.999Z,10.83
2023-03-03T18:10:36.406Z,8.83
2023-03-03T18:13:13.931Z,8.23
2023-03-03T18:16:05.410Z,8.17
2023-03-03T18:18:55.444Z,7.40
2023-03-03T18:21:26.300Z,6.67
2023-03-03T18:24:26.971Z,6.50
2023-03-03T18:26:56.421Z,6.30
2023-03-03T18:29:28.256Z,6.83
2023-03-03T18:32:20.356Z,6.80
2023-03-03T18:34:48.264Z,6.60
2023-03-03T18:37:40.573Z,6.93
2023-03-03T18:40:50.598Z,8.70
2023-03-03T18:43:57.676Z,7.17
2023-03-03T18:46:54.024Z,7.60
2023-03-03T18:49:52.347Z,5.90
2023-03-03T18:52:23.431Z,7.20
2023-03-03T18:55:26.769Z,7.43
2023-03-03T18:58:32.317Z,6.30
2023-03-03T19:01:09.050Z,7.00
2023-03-03T19:03:56.816Z,7.17
2023-03-03T19:06:33.347Z,6.63
2023-03-03T19:09:01.197Z,6.30
2023-03-03T19:11:36.878Z,6.97
2023-03-03T19:14:20.802Z,6.20
2023-03-03T19:16:50.391Z,6.63
2023-03-03T19:19:19.653Z,6.87
2023-03-03T19:21:52.019Z,7.20
2023-03-03T19:24:30.380Z,7.60
2023-03-03T19:27:25.774Z,7.10
2023-03-03T19:30:42.107Z,6.30
2023-03-03T19:33:29.107Z,5.93
2023-03-03T19:36:21.926Z,7.10
2023-03-03T19:39:03.198Z,8.47
2023-03-03T19:41:47.541Z,7.07
2023-03-03T19:44:29.236Z,7.80
2023-03-03T19:47:02.941Z,8.37
2023-03-03T19:49:48.840Z,8.77
2023-03-03T19:52:23.818Z,8.03
2023-03-03T19:55:17.849Z,8.50
2023-03-03T19:57:51.829Z,7.83
2023-03-03T20:00:28.346Z,7.33
2023-03-03T20:03:20.468Z,8.20
2023-03-03T20:05:52.330Z,7.67
2023-03-03T20:08:28.976Z,7.13
2023-03-03T20:11:02.997Z,8.23
2023-03-03T20:13:54.377Z,8.13
2023-03-03T20:16:37.094Z,7.27
2023-03-03T20:19:25.600Z,7.50
2023-03-03T20:22:05.371Z,8.13
2023-03-03T20:24:59.309Z,8.10
2023-03-03T20:27:35.479Z,8.03
2023-03-03T20:30:15.231Z,9.30
2023-03-03T20:32:55.270Z,11.03
2023-03-03T20:35:37.809Z,11.07
2023-03-03T20:38:18.332Z,9.83
2023-03-03T20:40:51.889Z,9.40
2023-03-03T20:43:35.040Z,10.43
2023-03-03T20:46:11.215Z,9.33
2023-03-03T20:48:54.137Z,9.40
2023-03-03T20:51:31.287Z,8.87
2023-03-03T20:54:07.932Z,8.63
2023-03-03T20:56:42.328Z,7.97
2023-03-03T20:59:22.759Z,8.30
2023-03-03T21:01:57.985Z,8.43
2023-03-03T21:04:27.483Z,8.93
2023-03-03T21:06:57.327Z,7.97
2023-03-03T21:09:30.739Z,8.77
2023-03-03T21:12:00.392Z,9.13
2023-03-03T21:14:29.818Z,8.90
2023-03-03T21:16:59.488Z,8.50
2023-03-03T21:19:29.536Z,8.20
2023-03-03T21:22:02.001Z,8.33
2023-03-03T21:24:50.589Z,7.70
2023-03-03T21:27:30.077Z,8.70
2023-03-03T21:30:08.004Z,8.67
2023-03-03T21:32:38.613Z,8.27
2023-03-03T21:35:08.737Z,8.20
2023-03-03T21:37:47.275Z,8.17
2023-03-03T21:40:20.589Z,8.30
2023-03-03T21:42:48.371Z,8.50
2023-03-03T21:45:20.248Z,8.47
2023-03-03T21:47:48.407Z,8.30
2023-03-03T21:50:17.341Z,9.37
2023-03-03T21:52:46.698Z,8.10
2023-03-03T21:55:14.644Z,9.03
2023-03-03T21:57:42.407Z,8.87
2023-03-03T22:00:11.413Z,9.13
2023-03-03T22:02:39.228Z,8.83
2023-03-03T22:05:08.250Z,9.37
2023-03-03T22:07:36.111Z,8.57
2023-03-03T22:10:07.311Z,9.10
2023-03-03T22:12:35.156Z,8.20
2023-03-03T22:15:03.034Z,7.63
2023-03-03T22:17:30.818Z,7.90
2023-03-03T22:19:58.591Z,8.00
2023-03-03T22:22:26.386Z,7.33
2023-03-03T22:24:54.646Z,8.00
2023-03-03T22:27:23.772Z,8.37
2023-03-03T22:29:51.571Z,7.97
2023-03-03T22:32:19.400Z,9.40
2023-03-03T22:34:47.441Z,10.93
2023-03-03T22:37:15.221Z,18.50
2023-03-03T22:39:43.002Z,56.83
2023-03-03T22:42:11.039Z,40.67
2023-03-03T22:44:40.270Z,25.97
2023-03-03T22:47:08.045Z,21.20
2023-03-03T22:49:35.838Z,15.37
2023-03-03T22:52:03.648Z,12.87
2023-03-03T22:54:31.457Z,12.63
2023-03-03T22:56:59.225Z,11.77
2023-03-03T22:59:27.052Z,11.40
2023-03-03T23:01:56.141Z,10.90
2023-03-03T23:04:23.980Z,13.37
2023-03-03T23:06:51.776Z,12.27
2023-03-03T23:09:19.595Z,14.20
2023-03-03T23:11:47.366Z,12.23
2023-03-03T23:14:15.131Z,14.30
2023-03-03T23:16:43.072Z,12.00
2023-03-03T23:19:12.154Z,10.43
2023-03-03T23:21:39.964Z,11.10
2023-03-03T23:24:09.936Z,12.67
2023-03-03T23:26:38.120Z,17.47
2023-03-03T23:29:06.149Z,16.43
2023-03-03T23:31:34.041Z,15.17
2023-03-03T23:34:01.859Z,13.43
2023-03-03T23:36:30.952Z,12.30
2023-03-03T23:38:58.713Z,13.27
2023-03-03T23:41:26.516Z,11.37
2023-03-03T23:43:54.315Z,9.63
2023-03-03T23:46:22.076Z,10.23
2023-03-03T23:48:49.869Z,9.00
2023-03-03T23:51:17.678Z,9.73
2023-03-03T23:53:46.814Z,11.10
2023-03-03T23:56:14.711Z,11.43
2023-03-03T23:58:42.479Z,9.97
